Time;durP1;ratioP1;P1;durP2;ratioP2;P2;SDS_P1;SDS_P2;PMS_P1;PMS_P2;Temp;Humidity;BMP_temperature;BMP_pressure;BME280_temperature;BME280_humidity;BME280_pressure;Samples;Min_cycle;Max_cycle;Signal;HPM_P1;HPM_P2
2022/05/17 00:02:12;;;;;;;;;;;18.80;92.10;;;;;;5130450;28;19948;-91
2022/05/17 00:04:38;;;;;;;;;;;18.80;92.00;;;;;;5130446;28;19975;-91
2022/05/17 00:07:04;;;;;;;;;;;18.80;91.90;;;;;;5130402;28;20369;-91
2022/05/17 00:09:30;;;;;;;;;;;18.80;92.00;;;;;;5130338;28;19934;-91
2022/05/17 00:11:57;;;;;;;;;;;18.80;91.90;;;;;;5119889;28;19951;-91
2022/05/17 00:14:23;;;;;;;;;;;18.80;91.80;;;;;;5116586;28;19931;-91
2022/05/17 00:16:48;;;;;;;;;;;18.80;91.90;;;;;;5116496;28;19957;-91
2022/05/17 00:19:19;;;;;;;;;;;18.80;92.30;;;;;;5116644;28;19961;-91
2022/05/17 00:21:45;;;;;;;;;;;18.80;92.10;;;;;;5099634;28;19991;-90
2022/05/17 00:24:11;;;;;;;;;;;18.80;91.90;;;;;;5095961;28;19991;-90
2022/05/17 00:26:37;;;;;;;;;;;18.60;91.60;;;;;;5096006;28;20374;-91
2022/05/17 00:29:02;;;;;;;;;;;18.60;91.60;;;;;;5095903;28;20047;-90
2022/05/17 00:31:28;;;;;;;;;;;18.60;91.60;;;;;;5109847;28;19989;-90
2022/05/17 00:33:53;;;;;;;;;;;18.50;91.60;;;;;;5116061;28;19951;-90
2022/05/17 00:36:19;;;;;;;;;;;18.60;91.90;;;;;;5116169;28;19931;-90
2022/05/17 00:38:45;;;;;;;;;;;18.60;91.70;;;;;;5116037;28;19994;-90
2022/05/17 00:41:10;;;;;;;;;;;18.60;91.50;;;;;;5116025;28;20358;-90
2022/05/17 00:46:44;;;;;;;;;;;18.50;90.80;;;;;;5042864;28;19966;-91
2022/05/17 00:49:11;;;;;;;;;;;18.40;90.70;;;;;;5096754;28;20014;-91
2022/05/17 00:51:38;;;;;;;;;;;18.40;90.50;;;;;;5095431;28;19983;-90
2022/05/17 00:54:09;;;;;;;;;;;18.30;90.50;;;;;;5095486;28;19951;-90
2022/05/17 00:56:40;;;;;;;;;;;18.20;90.80;;;;;;5095351;28;19993;-90
2022/05/17 01:00:14;;;;;;;;;;;18.10;91.30;;;;;;5111202;27;19939;-90
2022/05/17 01:02:45;;;;;;;;;;;18.10;91.80;;;;;;5111150;28;19956;-90
2022/05/17 01:05:11;;;;;;;;;;;18.00;91.70;;;;;;5111010;28;20050;-90
2022/05/17 01:09:21;;;;;;;;;;;18.00;91.10;;;;;;5111082;27;20332;-90
2022/05/17 01:11:47;;;;;;;;;;;18.00;91.10;;;;;;5111072;28;19993;-90
2022/05/17 01:16:58;;;;;;;;;;;17.80;91.40;;;;;;5111082;28;19993;-90
2022/05/17 01:19:24;;;;;;;;;;;17.90;91.30;;;;;;5110651;28;19961;-90
2022/05/17 01:21:49;;;;;;;;;;;17.80;91.40;;;;;;5111150;28;19931;-90
2022/05/17 01:24:15;;;;;;;;;;;17.80;91.30;;;;;;5093912;28;20373;-90
2022/05/17 01:26:42;;;;;;;;;;;17.70;91.30;;;;;;5090467;28;20027;-91
2022/05/17 01:29:09;;;;;;;;;;;17.60;91.30;;;;;;5090168;28;19975;-90
2022/05/17 01:31:36;;;;;;;;;;;17.60;91.50;;;;;;5090381;28;20000;-90
2022/05/17 01:34:04;;;;;;;;;;;17.60;91.60;;;;;;5090197;28;19929;-91
2022/05/17 01:36:30;;;;;;;;;;;17.60;91.60;;;;;;5090200;28;19964;-90
2022/05/17 01:38:56;;;;;;;;;;;17.50;92.00;;;;;;5090085;28;19951;-91
2022/05/17 01:41:21;;;;;;;;;;;17.60;92.30;;;;;;5090202;28;19946;-91
2022/05/17 01:43:47;;;;;;;;;;;17.60;92.30;;;;;;5090201;28;19942;-91
2022/05/17 01:46:13;;;;;;;;;;;17.70;92.20;;;;;;5090075;28;19990;-91
2022/05/17 01:48:39;;;;;;;;;;;17.60;92.20;;;;;;5089799;28;19979;-90
2022/05/17 01:51:06;;;;;;;;;;;17.60;92.20;;;;;;5090032;28;19938;-91
2022/05/17 01:53:32;;;;;;;;;;;17.60;92.50;;;;;;5090003;28;19941;-91
2022/05/17 01:55:57;;;;;;;;;;;17.60;92.30;;;;;;5090202;28;19968;-90
2022/05/17 01:58:23;;;;;;;;;;;17.50;92.40;;;;;;5089701;28;20323;-91
2022/05/17 02:00:48;;;;;;;;;;;17.50;92.60;;;;;;5089634;28;19994;-91
2022/05/17 02:03:14;;;;;;;;;;;17.60;93.00;;;;;;5089789;28;20387;-90
2022/05/17 02:05:40;;;;;;;;;;;17.60;93.00;;;;;;5089899;28;19923;-90
2022/05/17 02:08:05;;;;;;;;;;;17.60;93.00;;;;;;5089466;28;20043;-90
2022/05/17 02:10:31;;;;;;;;;;;17.50;93.00;;;;;;5089604;28;19939;-91
2022/05/17 02:12:58;;;;;;;;;;;17.50;93.10;;;;;;5089621;28;20321;-90
2022/05/17 02:15:25;;;;;;;;;;;17.50;93.30;;;;;;5089301;28;19955;-90
2022/05/17 02:17:50;;;;;;;;;;;17.40;93.50;;;;;;5089470;28;19942;-90
2022/05/17 02:20:16;;;;;;;;;;;17.40;93.50;;;;;;5078363;28;19989;-90
2022/05/17 02:22:41;;;;;;;;;;;17.40;93.40;;;;;;5075866;28;20007;-90
2022/05/17 02:25:08;;;;;;;;;;;17.30;93.50;;;;;;5075788;28;19975;-90
2022/05/17 02:27:34;;;;;;;;;;;17.30;93.50;;;;;;5076103;28;19967;-91
2022/05/17 02:29:59;;;;;;;;;;;17.30;93.50;;;;;;5075845;28;20025;-91
2022/05/17 02:32:25;;;;;;;;;;;17.20;93.40;;;;;;5075652;28;19927;-90
2022/05/17 02:34:51;;;;;;;;;;;17.10;93.40;;;;;;5075692;28;19958;-91
2022/05/17 02:37:16;;;;;;;;;;;17.10;93.80;;;;;;5075408;28;19969;-91
2022/05/17 02:39:42;;;;;;;;;;;17.10;94.20;;;;;;5075639;28;20303;-90
2022/05/17 02:42:09;;;;;;;;;;;17.20;94.40;;;;;;5075838;28;20024;-91
2022/05/17 02:44:34;;;;;;;;;;;17.30;94.20;;;;;;5075601;28;19940;-90
2022/05/17 02:47:00;;;;;;;;;;;17.30;94.10;;;;;;5074952;28;19930;-90
2022/05/17 02:49:25;;;;;;;;;;;17.30;93.90;;;;;;5075704;28;20335;-91
2022/05/17 02:51:51;;;;;;;;;;;17.30;94.00;;;;;;5075388;28;20489;-91
2022/05/17 02:54:17;;;;;;;;;;;17.30;94.00;;;;;;5075303;28;20303;-90
2022/05/17 02:56:42;;;;;;;;;;;17.30;94.00;;;;;;5075090;28;19957;-90
2022/05/17 02:59:08;;;;;;;;;;;17.30;93.90;;;;;;5075253;28;19912;-90
2022/05/17 03:01:33;;;;;;;;;;;17.40;93.90;;;;;;5075198;28;19942;-90
2022/05/17 03:04:00;;;;;;;;;;;17.40;93.80;;;;;;5075218;28;19925;-90
2022/05/17 03:06:26;;;;;;;;;;;17.30;93.60;;;;;;5074917;28;19928;-90
2022/05/17 03:08:51;;;;;;;;;;;17.10;93.40;;;;;;5074633;28;19968;-90
2022/05/17 03:11:17;;;;;;;;;;;16.90;93.90;;;;;;5074984;28;19949;-90
2022/05/17 03:13:43;;;;;;;;;;;16.80;94.30;;;;;;5074988;28;19947;-90
2022/05/17 03:16:10;;;;;;;;;;;16.70;94.50;;;;;;5074709;28;20331;-90
2022/05/17 03:18:35;;;;;;;;;;;16.70;94.70;;;;;;5074780;28;20026;-90
2022/05/17 03:21:01;;;;;;;;;;;16.70;94.80;;;;;;5074794;28;20158;-91
2022/05/17 03:23:26;;;;;;;;;;;16.70;94.80;;;;;;5074676;28;19940;-91
2022/05/17 03:25:52;;;;;;;;;;;16.60;94.80;;;;;;5074587;28;20295;-91
2022/05/17 03:28:18;;;;;;;;;;;16.60;94.80;;;;;;5074668;28;19961;-91
2022/05/17 03:30:43;;;;;;;;;;;16.60;94.90;;;;;;5073778;28;19977;-91
2022/05/17 03:33:09;;;;;;;;;;;16.50;94.90;;;;;;5074393;28;19992;-91
2022/05/17 03:35:35;;;;;;;;;;;16.50;94.90;;;;;;5074382;28;19937;-91
2022/05/17 03:38:01;;;;;;;;;;;16.50;94.90;;;;;;5074489;28;19969;-91
2022/05/17 03:40:27;;;;;;;;;;;16.50;95.00;;;;;;5074499;28;19982;-91
2022/05/17 03:42:52;;;;;;;;;;;16.40;95.00;;;;;;5073100;28;19939;-91
2022/05/17 03:45:18;;;;;;;;;;;16.40;94.90;;;;;;5074173;28;19926;-90
2022/05/17 03:47:43;;;;;;;;;;;16.40;94.90;;;;;;5074232;28;19993;-90
2022/05/17 03:50:09;;;;;;;;;;;16.40;94.90;;;;;;5074294;28;19925;-89
2022/05/17 03:52:35;;;;;;;;;;;16.40;94.90;;;;;;5074238;28;20385;-90
2022/05/17 03:55:02;;;;;;;;;;;16.30;94.80;;;;;;5072903;28;19972;-90
2022/05/17 03:57:28;;;;;;;;;;;16.30;94.70;;;;;;5073835;28;19942;-90
2022/05/17 03:59:54;;;;;;;;;;;16.30;94.70;;;;;;5074007;28;19951;-91
2022/05/17 04:02:19;;;;;;;;;;;16.20;94.70;;;;;;5074311;28;20474;-90
2022/05/17 04:04:45;;;;;;;;;;;16.20;94.70;;;;;;5073921;28;20292;-90
2022/05/17 04:07:11;;;;;;;;;;;16.20;94.60;;;;;;5073449;28;19926;-91
2022/05/17 04:09:36;;;;;;;;;;;16.10;94.50;;;;;;5073875;28;19936;-90
2022/05/17 04:12:03;;;;;;;;;;;16.20;94.50;;;;;;5073822;28;19951;-90
2022/05/17 04:14:29;;;;;;;;;;;16.20;94.50;;;;;;5073818;28;19955;-90
2022/05/17 04:16:55;;;;;;;;;;;16.30;94.50;;;;;;5073506;28;19961;-91
2022/05/17 04:19:20;;;;;;;;;;;16.40;94.30;;;;;;5073728;28;19974;-90
2022/05/17 04:23:08;;;;;;;;;;;16.50;93.90;;;;;;5111161;27;20347;-90
2022/05/17 04:25:33;;;;;;;;;;;16.50;93.30;;;;;;5110306;28;20034;-90
2022/05/17 04:27:59;;;;;;;;;;;16.60;93.30;;;;;;5090756;28;19942;-90
2022/05/17 04:30:25;;;;;;;;;;;16.60;93.10;;;;;;5090665;28;20342;-90
2022/05/17 04:32:50;;;;;;;;;;;16.70;92.80;;;;;;5090462;28;19939;-90
2022/05/17 04:35:16;;;;;;;;;;;16.80;92.80;;;;;;5090501;28;19951;-91
2022/05/17 04:37:42;;;;;;;;;;;16.80;92.60;;;;;;5109670;28;20409;-91
2022/05/17 04:40:09;;;;;;;;;;;16.80;92.50;;;;;;5110767;28;20027;-90
2022/05/17 04:42:35;;;;;;;;;;;16.80;92.30;;;;;;5111014;28;19957;-91
2022/05/17 04:45:02;;;;;;;;;;;16.80;92.50;;;;;;5110777;28;20071;-90
2022/05/17 04:47:28;;;;;;;;;;;16.90;92.70;;;;;;5093211;28;20418;-91
2022/05/17 04:49:55;;;;;;;;;;;17.00;92.50;;;;;;5090271;28;19959;-90
2022/05/17 04:52:20;;;;;;;;;;;17.00;92.30;;;;;;5088940;28;19971;-90
2022/05/17 04:54:46;;;;;;;;;;;17.10;92.10;;;;;;5090187;28;19942;-90
2022/05/17 04:57:11;;;;;;;;;;;17.20;92.10;;;;;;5091255;28;19924;-90
2022/05/17 04:59:37;;;;;;;;;;;17.20;92.00;;;;;;5097004;28;19930;-91
2022/05/17 05:02:03;;;;;;;;;;;17.30;92.00;;;;;;5105186;28;19954;-90
2022/05/17 05:04:28;;;;;;;;;;;17.30;91.90;;;;;;5090031;28;20073;-90
2022/05/17 05:06:54;;;;;;;;;;;17.40;91.80;;;;;;5089878;28;19944;-90
2022/05/17 05:09:19;;;;;;;;;;;17.50;91.70;;;;;;5108755;28;19979;-91
2022/05/17 05:11:45;;;;;;;;;;;17.60;90.80;;;;;;5106935;28;19958;-91
2022/05/17 05:14:11;;;;;;;;;;;17.70;90.20;;;;;;5100296;28;20044;-90
2022/05/17 05:16:37;;;;;;;;;;;17.70;90.30;;;;;;5098975;28;19988;-90
2022/05/17 05:19:03;;;;;;;;;;;17.80;90.00;;;;;;5090839;28;19969;-90
2022/05/17 05:21:29;;;;;;;;;;;17.90;90.00;;;;;;5107718;28;19996;-90
2022/05/17 05:23:54;;;;;;;;;;;17.90;90.10;;;;;;5106086;28;19972;-91
2022/05/17 05:26:20;;;;;;;;;;;17.90;89.90;;;;;;5107396;28;19960;-91
2022/05/17 05:28:45;;;;;;;;;;;18.00;89.70;;;;;;5092064;28;20073;-91
2022/05/17 05:31:13;;;;;;;;;;;18.00;89.30;;;;;;5101388;28;19952;-90
2022/05/17 05:33:39;;;;;;;;;;;18.00;89.20;;;;;;5084220;28;20522;-90
2022/05/17 05:36:05;;;;;;;;;;;18.10;88.90;;;;;;5080932;28;19984;-90
2022/05/17 05:38:31;;;;;;;;;;;18.10;88.60;;;;;;5086063;28;19961;-90
2022/05/17 05:40:56;;;;;;;;;;;18.20;88.50;;;;;;5089418;28;20314;-90
2022/05/17 05:43:22;;;;;;;;;;;18.30;88.80;;;;;;5078765;28;19986;-90
2022/05/17 05:45:47;;;;;;;;;;;18.30;89.00;;;;;;5082331;28;20516;-90
2022/05/17 05:48:13;;;;;;;;;;;18.40;88.60;;;;;;5086260;28;19964;-91
2022/05/17 05:50:39;;;;;;;;;;;18.40;88.80;;;;;;5092016;28;19953;-90
2022/05/17 05:53:06;;;;;;;;;;;18.40;88.80;;;;;;5083698;28;20033;-90
2022/05/17 05:56:49;;;;;;;;;;;18.40;88.90;;;;;;5090338;27;19952;-90
2022/05/17 05:59:15;;;;;;;;;;;18.50;88.30;;;;;;5090131;28;19935;-90
2022/05/17 06:01:41;;;;;;;;;;;18.60;88.40;;;;;;5088940;28;19960;-89
2022/05/17 06:04:06;;;;;;;;;;;18.80;86.60;;;;;;5089721;28;20014;-90
2022/05/17 06:06:32;;;;;;;;;;;18.80;86.60;;;;;;5083802;28;19953;-90
2022/05/17 06:08:58;;;;;;;;;;;18.90;86.00;;;;;;5094959;28;19968;-90
2022/05/17 06:11:23;;;;;;;;;;;18.90;85.60;;;;;;5088564;28;20071;-90
2022/05/17 06:13:49;;;;;;;;;;;19.00;85.20;;;;;;5087793;28;19971;-90
2022/05/17 06:16:16;;;;;;;;;;;19.00;84.80;;;;;;5089542;28;20053;-90
2022/05/17 06:18:41;;;;;;;;;;;19.10;84.50;;;;;;5089482;28;19991;-91
2022/05/17 06:21:07;;;;;;;;;;;19.20;84.60;;;;;;5087273;28;19972;-90
2022/05/17 06:23:35;;;;;;;;;;;19.30;84.30;;;;;;5090075;28;19978;-90
2022/05/17 06:26:00;;;;;;;;;;;19.30;84.00;;;;;;5085289;28;19976;-90
2022/05/17 06:28:26;;;;;;;;;;;19.30;83.30;;;;;;5089278;28;20286;-90
2022/05/17 06:30:52;;;;;;;;;;;19.40;83.60;;;;;;5091247;28;20010;-90
2022/05/17 06:33:17;;;;;;;;;;;19.50;84.50;;;;;;5091268;28;19930;-90
2022/05/17 06:35:44;;;;;;;;;;;19.50;84.70;;;;;;5093883;28;20395;-90
2022/05/17 06:38:11;;;;;;;;;;;19.60;83.70;;;;;;5095048;28;19923;-90
2022/05/17 06:40:36;;;;;;;;;;;19.60;83.30;;;;;;5100124;28;20088;-90
2022/05/17 06:43:03;;;;;;;;;;;19.70;82.90;;;;;;5088265;28;20320;-91
2022/05/17 06:45:28;;;;;;;;;;;19.70;82.10;;;;;;5092235;28;19919;-91
2022/05/17 06:47:54;;;;;;;;;;;19.80;82.70;;;;;;5095897;28;20005;-90
2022/05/17 06:50:20;;;;;;;;;;;19.80;82.50;;;;;;5085455;28;19929;-90
2022/05/17 06:52:46;;;;;;;;;;;19.90;81.30;;;;;;5082026;28;19919;-90
2022/05/17 06:55:11;;;;;;;;;;;20.00;81.20;;;;;;5088378;28;20408;-90
2022/05/17 06:57:37;;;;;;;;;;;20.00;81.50;;;;;;5087109;28;20289;-90
2022/05/17 07:00:06;;;;;;;;;;;20.10;81.80;;;;;;5087503;28;20314;-90
2022/05/17 07:02:35;;;;;;;;;;;20.10;81.00;;;;;;5087379;28;19926;-90
2022/05/17 07:05:01;;;;;;;;;;;20.10;80.90;;;;;;5083523;28;19927;-91
2022/05/17 07:07:27;;;;;;;;;;;20.20;80.60;;;;;;5074026;28;20299;-90
2022/05/17 07:15:21;;;;;;;;;;;20.30;79.60;;;;;;5074939;28;19957;-90
2022/05/17 07:17:47;;;;;;;;;;;20.40;79.20;;;;;;5067364;28;19913;-90
2022/05/17 07:20:13;;;;;;;;;;;20.40;79.80;;;;;;5069005;28;20322;-90
2022/05/17 07:22:38;;;;;;;;;;;20.50;78.90;;;;;;5071867;28;19959;-90
2022/05/17 07:25:04;;;;;;;;;;;20.60;78.00;;;;;;5072188;28;19974;-90
2022/05/17 07:27:30;;;;;;;;;;;20.60;79.80;;;;;;5071871;28;19970;-90
2022/05/17 07:29:55;;;;;;;;;;;20.60;78.30;;;;;;5064715;28;20039;-90
2022/05/17 07:32:21;;;;;;;;;;;20.70;79.20;;;;;;5065857;28;19948;-91
2022/05/17 07:34:47;;;;;;;;;;;20.70;79.40;;;;;;5074669;28;20058;-90
2022/05/17 07:37:13;;;;;;;;;;;20.80;80.00;;;;;;5073624;28;19912;-91
2022/05/17 07:39:39;;;;;;;;;;;20.80;79.60;;;;;;5069659;28;19954;-90
2022/05/17 07:42:05;;;;;;;;;;;20.90;79.50;;;;;;5073751;28;19947;-91
2022/05/17 07:44:31;;;;;;;;;;;21.00;80.60;;;;;;5074923;28;19938;-90
2022/05/17 07:48:47;;;;;;;;;;;21.10;80.80;;;;;;5092808;27;2018610;-90
2022/05/17 07:51:12;;;;;;;;;;;21.20;79.20;;;;;;5140917;27;19912;-90
2022/05/17 07:53:38;;;;;;;;;;;21.30;79.70;;;;;;5138333;27;20332;-91
2022/05/17 07:56:04;;;;;;;;;;;21.30;78.90;;;;;;5139299;27;20334;-91
2022/05/17 07:58:29;;;;;;;;;;;21.30;78.40;;;;;;5138389;27;19951;-91
2022/05/17 08:00:55;;;;;;;;;;;21.40;79.10;;;;;;5141595;27;19959;-91
2022/05/17 08:03:21;;;;;;;;;;;21.40;77.90;;;;;;5140817;27;20025;-91
2022/05/17 08:05:47;;;;;;;;;;;21.50;78.20;;;;;;5139469;27;20001;-91
2022/05/17 08:08:12;;;;;;;;;;;21.60;78.50;;;;;;5147674;27;19922;-91
2022/05/17 08:10:38;;;;;;;;;;;21.60;77.70;;;;;;5144931;27;20287;-91
2022/05/17 08:13:04;;;;;;;;;;;21.60;78.50;;;;;;5145100;27;20297;-91
2022/05/17 08:15:30;;;;;;;;;;;21.80;77.90;;;;;;5141775;27;20323;-91
2022/05/17 08:17:56;;;;;;;;;;;21.90;77.10;;;;;;5139129;27;20045;-91
2022/05/17 08:20:22;;;;;;;;;;;22.00;76.30;;;;;;5141652;27;20371;-90
2022/05/17 08:22:47;;;;;;;;;;;22.00;74.00;;;;;;5141676;27;20382;-91
2022/05/17 08:27:59;;;;;;;;;;;22.10;73.30;;;;;;5127846;27;20032;-91
2022/05/17 08:30:25;;;;;;;;;;;22.20;72.40;;;;;;5121875;27;20041;-91
2022/05/17 08:35:51;;;;;;;;;;;22.30;73.60;;;;;;5126045;27;20003;-91
2022/05/17 08:38:16;;;;;;;;;;;22.30;73.50;;;;;;5126538;27;19943;-91
2022/05/17 08:40:50;;;;;;;;;;;22.50;74.30;;;;;;5122612;27;19980;-91
2022/05/17 08:43:19;;;;;;;;;;;22.60;73.70;;;;;;5130228;28;19911;-90
2022/05/17 08:45:56;;;;;;;;;;;22.70;72.90;;;;;;5122280;28;19912;-90
2022/05/17 08:48:22;;;;;;;;;;;22.80;73.70;;;;;;5115354;28;20450;-90
2022/05/17 08:50:48;;;;;;;;;;;22.80;74.60;;;;;;5124677;27;19934;-90
2022/05/17 08:53:16;;;;;;;;;;;22.90;72.60;;;;;;5123733;28;19941;-91
2022/05/17 08:55:42;;;;;;;;;;;23.00;72.40;;;;;;5126679;27;19912;-91
2022/05/17 08:58:08;;;;;;;;;;;23.00;72.70;;;;;;5123087;27;19915;-91
2022/05/17 09:00:44;;;;;;;;;;;23.10;71.60;;;;;;5111866;27;19973;-91
2022/05/17 09:03:16;;;;;;;;;;;23.20;72.80;;;;;;5109265;28;19963;-90
2022/05/17 09:05:54;;;;;;;;;;;23.10;73.00;;;;;;5111069;27;19927;-91
2022/05/17 09:08:23;;;;;;;;;;;23.30;75.60;;;;;;5107864;28;20000;-91
2022/05/17 09:10:52;;;;;;;;;;;23.40;72.80;;;;;;5113116;27;19919;-91
2022/05/17 09:13:18;;;;;;;;;;;23.50;71.80;;;;;;5114565;27;19912;-91
2022/05/17 09:15:43;;;;;;;;;;;23.50;71.70;;;;;;5113961;27;20279;-91
2022/05/17 09:18:12;;;;;;;;;;;23.50;73.00;;;;;;5113275;28;19919;-91
2022/05/17 09:20:38;;;;;;;;;;;23.60;73.70;;;;;;5092433;28;20373;-90
2022/05/17 09:23:04;;;;;;;;;;;23.60;71.80;;;;;;5110643;28;20326;-91
2022/05/17 09:25:48;;;;;;;;;;;23.70;71.10;;;;;;5106301;28;19911;-91
2022/05/17 09:28:22;;;;;;;;;;;23.80;71.60;;;;;;5101627;28;19916;-90
2022/05/17 09:30:48;;;;;;;;;;;23.80;70.00;;;;;;5102691;27;19912;-91
2022/05/17 09:33:19;;;;;;;;;;;23.80;70.80;;;;;;5087071;28;19912;-91
2022/05/17 09:35:55;;;;;;;;;;;23.90;69.20;;;;;;5106025;28;20360;-90
2022/05/17 09:38:21;;;;;;;;;;;24.00;72.90;;;;;;5109164;28;20373;-90
2022/05/17 09:40:49;;;;;;;;;;;24.00;71.70;;;;;;5105532;28;19926;-90
2022/05/17 09:43:16;;;;;;;;;;;24.10;70.60;;;;;;5105573;28;20274;-90
2022/05/17 09:45:41;;;;;;;;;;;24.20;71.40;;;;;;5108978;28;19916;-90
2022/05/17 09:48:09;;;;;;;;;;;24.30;70.20;;;;;;5111301;28;19927;-90
2022/05/17 09:53:45;;;;;;;;;;;24.30;71.20;;;;;;5050022;28;20303;-91
2022/05/17 09:56:11;;;;;;;;;;;24.50;71.00;;;;;;5098158;28;19972;-91
2022/05/17 09:58:38;;;;;;;;;;;24.50;69.00;;;;;;5098897;28;20320;-91
2022/05/17 10:01:25;;;;;;;;;;;24.70;70.80;;;;;;5106599;28;19916;-91
2022/05/17 10:04:17;;;;;;;;;;;24.80;71.10;;;;;;5113497;28;19915;-92
2022/05/17 10:06:44;;;;;;;;;;;24.90;68.90;;;;;;5103364;28;19919;-91
2022/05/17 10:09:12;;;;;;;;;;;25.00;67.30;;;;;;5114891;28;19947;-91
2022/05/17 10:11:57;;;;;;;;;;;25.10;65.90;;;;;;5102176;28;19916;-91
2022/05/17 10:14:25;;;;;;;;;;;25.10;66.00;;;;;;5102583;28;19912;-91
2022/05/17 10:16:51;;;;;;;;;;;25.10;68.30;;;;;;5113664;28;19920;-91
2022/05/17 10:19:17;;;;;;;;;;;25.20;65.80;;;;;;5114973;28;19953;-91
2022/05/17 10:21:46;;;;;;;;;;;25.20;66.60;;;;;;5114464;28;19912;-91
2022/05/17 10:24:38;;;;;;;;;;;25.20;65.80;;;;;;5114817;28;19911;-91
2022/05/17 10:27:09;;;;;;;;;;;25.20;66.10;;;;;;5110580;28;19912;-91
2022/05/17 10:29:49;;;;;;;;;;;25.30;67.40;;;;;;5114954;28;19908;-91
2022/05/17 10:32:35;;;;;;;;;;;25.30;65.90;;;;;;5094606;28;19920;-91
2022/05/17 10:35:05;;;;;;;;;;;25.50;65.10;;;;;;5092607;28;20015;-91
2022/05/17 10:37:33;;;;;;;;;;;25.60;67.40;;;;;;5094432;28;19931;-91
2022/05/17 10:39:59;;;;;;;;;;;25.70;63.80;;;;;;5095620;28;19916;-91
2022/05/17 10:42:26;;;;;;;;;;;25.70;67.00;;;;;;5114455;28;19908;-91
2022/05/17 10:44:53;;;;;;;;;;;25.80;62.40;;;;;;5114461;28;19939;-91
2022/05/17 10:47:37;;;;;;;;;;;25.90;62.50;;;;;;5110170;28;20344;-91
2022/05/17 10:50:10;;;;;;;;;;;26.00;63.20;;;;;;5094026;28;19915;-91
2022/05/17 10:52:44;;;;;;;;;;;26.00;63.50;;;;;;5093991;28;19915;-91
2022/05/17 10:55:17;;;;;;;;;;;26.10;59.80;;;;;;5093850;28;19908;-91
2022/05/17 10:58:01;;;;;;;;;;;26.20;58.80;;;;;;5100715;28;20005;-91
2022/05/17 11:00:37;;;;;;;;;;;26.30;60.00;;;;;;5114487;28;19911;-91
2022/05/17 11:03:23;;;;;;;;;;;26.60;63.90;;;;;;5114167;28;20426;-91
2022/05/17 11:06:07;;;;;;;;;;;26.80;61.70;;;;;;5102946;28;20356;-91
2022/05/17 11:08:38;;;;;;;;;;;27.00;62.60;;;;;;5100236;28;19920;-91
2022/05/17 11:11:19;;;;;;;;;;;27.20;59.60;;;;;;5101269;28;19918;-91
2022/05/17 11:13:46;;;;;;;;;;;27.20;60.00;;;;;;5113717;28;19912;-91
2022/05/17 11:16:19;;;;;;;;;;;27.20;60.00;;;;;;5114031;28;20357;-91
2022/05/17 11:18:51;;;;;;;;;;;27.10;57.80;;;;;;5080373;28;19912;-91
2022/05/17 11:21:21;;;;;;;;;;;27.10;58.40;;;;;;5093326;28;20422;-91
2022/05/17 11:23:55;;;;;;;;;;;27.30;58.00;;;;;;5093392;28;20349;-91
2022/05/17 11:26:40;;;;;;;;;;;27.50;56.30;;;;;;5101608;28;20448;-91
2022/05/17 11:30:52;;;;;;;;;;;27.60;58.10;;;;;;5119907;27;19915;-91
2022/05/17 11:33:23;;;;;;;;;;;27.40;56.50;;;;;;5103805;28;19920;-91
2022/05/17 11:35:50;;;;;;;;;;;27.20;54.70;;;;;;5110921;28;19916;-91
2022/05/17 11:38:39;;;;;;;;;;;27.20;55.20;;;;;;5114214;28;20262;-91
2022/05/17 11:41:18;;;;;;;;;;;27.30;55.30;;;;;;5108205;28;19916;-91
2022/05/17 11:43:44;;;;;;;;;;;27.70;56.00;;;;;;5114267;28;19946;-91
2022/05/17 11:46:28;;;;;;;;;;;27.70;56.40;;;;;;5121782;28;20410;-91
2022/05/17 11:48:58;;;;;;;;;;;27.70;53.30;;;;;;5100881;28;20011;-91
2022/05/17 11:51:28;;;;;;;;;;;27.80;55.00;;;;;;5103881;28;19986;-91
2022/05/17 11:53:54;;;;;;;;;;;28.10;54.10;;;;;;5117507;28;19912;-92
2022/05/17 11:56:25;;;;;;;;;;;28.30;51.20;;;;;;5118872;28;19912;-91
2022/05/17 11:58:55;;;;;;;;;;;28.30;53.80;;;;;;5111341;28;19920;-92
2022/05/17 12:01:30;;;;;;;;;;;28.50;52.10;;;;;;5117023;28;20369;-92
2022/05/17 12:04:14;;;;;;;;;;;28.90;55.20;;;;;;5113507;28;19912;-92
2022/05/17 12:07:04;;;;;;;;;;;29.50;52.10;;;;;;5100470;28;20385;-92
2022/05/17 12:09:38;;;;;;;;;;;29.90;51.90;;;;;;5103691;28;20345;-92
2022/05/17 12:12:03;;;;;;;;;;;30.40;48.60;;;;;;5105918;28;19912;-92
2022/05/17 12:14:34;;;;;;;;;;;30.80;51.00;;;;;;5114533;28;19913;-92
2022/05/17 12:17:06;;;;;;;;;;;30.80;46.30;;;;;;5112957;28;19915;-92
2022/05/17 12:19:51;;;;;;;;;;;30.70;45.50;;;;;;5111186;28;19912;-92
2022/05/17 12:22:23;;;;;;;;;;;30.80;42.80;;;;;;5107711;28;20245;-92
2022/05/17 12:24:59;;;;;;;;;;;30.90;46.50;;;;;;5120915;27;19956;-92
2022/05/17 12:27:28;;;;;;;;;;;30.70;45.20;;;;;;5095281;28;19916;-92
2022/05/17 12:32:50;;;;;;;;;;;32.10;44.40;;;;;;5095261;28;19958;-92
2022/05/17 12:35:22;;;;;;;;;;;32.50;42.70;;;;;;5097383;28;19951;-92
2022/05/17 12:37:47;;;;;;;;;;;33.00;41.90;;;;;;5096387;28;19920;-92
2022/05/17 12:43:03;;;;;;;;;;;32.60;41.90;;;;;;5082506;28;19993;-92
2022/05/17 12:45:34;;;;;;;;;;;32.80;44.60;;;;;;5085171;28;19913;-92
2022/05/17 12:48:01;;;;;;;;;;;33.20;44.40;;;;;;5091308;28;19912;-92
2022/05/17 12:50:30;;;;;;;;;;;33.50;40.40;;;;;;5085808;28;19969;-92
2022/05/17 12:52:57;;;;;;;;;;;32.70;42.80;;;;;;5081275;28;19913;-92
2022/05/17 12:55:25;;;;;;;;;;;31.90;41.10;;;;;;5092391;28;20319;-92
2022/05/17 12:57:52;;;;;;;;;;;31.90;43.80;;;;;;5084806;28;19916;-92
2022/05/17 13:00:24;;;;;;;;;;;32.70;43.20;;;;;;5090701;28;19912;-92
2022/05/17 13:02:58;;;;;;;;;;;33.20;42.50;;;;;;5080321;28;20407;-92
2022/05/17 13:05:30;;;;;;;;;;;33.60;38.10;;;;;;5080371;28;20191;-92
2022/05/17 13:08:06;;;;;;;;;;;33.40;38.30;;;;;;5089522;28;19912;-92
2022/05/17 13:10:32;;;;;;;;;;;33.40;39.40;;;;;;5094706;28;19916;-92
2022/05/17 13:12:59;;;;;;;;;;;34.20;38.80;;;;;;5080470;28;19919;-93
2022/05/17 13:15:25;;;;;;;;;;;34.90;39.00;;;;;;5075588;28;19995;-93
2022/05/17 13:17:53;;;;;;;;;;;35.40;39.10;;;;;;5094207;28;19912;-92
2022/05/17 13:20:21;;;;;;;;;;;35.80;36.90;;;;;;5079760;28;19920;-92
2022/05/17 13:22:48;;;;;;;;;;;36.20;38.50;;;;;;5086557;28;19956;-93
2022/05/17 13:25:15;;;;;;;;;;;37.10;35.50;;;;;;5085132;28;20003;-93
2022/05/17 13:27:45;;;;;;;;;;;36.80;35.30;;;;;;5087771;28;19919;-93
2022/05/17 13:30:28;;;;;;;;;;;36.90;35.40;;;;;;5075352;28;20020;-93
2022/05/17 13:32:54;;;;;;;;;;;38.10;33.70;;;;;;5079049;28;19916;-93
2022/05/17 13:35:25;;;;;;;;;;;38.60;30.20;;;;;;5082361;28;19920;-93
2022/05/17 13:37:53;;;;;;;;;;;38.70;30.60;;;;;;5098630;28;19912;-93
2022/05/17 13:40:38;;;;;;;;;;;38.70;30.80;;;;;;5087380;28;19915;-93
2022/05/17 13:43:22;;;;;;;;;;;37.90;30.60;;;;;;5097533;28;19913;-93
2022/05/17 13:46:06;;;;;;;;;;;37.90;31.90;;;;;;5087123;28;19982;-93
2022/05/17 13:48:33;;;;;;;;;;;37.90;31.90;;;;;;5090030;28;19916;-92
2022/05/17 13:51:00;;;;;;;;;;;38.20;30.10;;;;;;5091493;28;19911;-92
2022/05/17 13:53:29;;;;;;;;;;;38.00;29.60;;;;;;5079155;28;19919;-93
2022/05/17 13:55:55;;;;;;;;;;;37.70;31.00;;;;;;5098668;28;19916;-92
2022/05/17 13:58:22;;;;;;;;;;;37.10;31.90;;;;;;5092443;28;19916;-93
2022/05/17 14:00:57;;;;;;;;;;;38.10;30.50;;;;;;5088327;28;19965;-92
2022/05/17 14:03:23;;;;;;;;;;;37.90;33.60;;;;;;5080064;28;20285;-92
2022/05/17 14:05:54;;;;;;;;;;;38.10;32.50;;;;;;5076501;28;19925;-92
2022/05/17 14:13:59;;;;;;;;;;;38.40;31.40;;;;;;5095006;28;19919;-92
2022/05/17 14:16:28;;;;;;;;;;;37.80;33.00;;;;;;5087390;28;19920;-92
2022/05/17 14:18:54;;;;;;;;;;;36.70;33.70;;;;;;5080753;28;19920;-92
2022/05/17 14:21:19;;;;;;;;;;;36.90;34.70;;;;;;5074906;28;19912;-92
2022/05/17 14:23:50;;;;;;;;;;;38.00;32.10;;;;;;5087390;28;19920;-92
2022/05/17 14:26:17;;;;;;;;;;;38.60;29.80;;;;;;5089085;28;19962;-92
2022/05/17 14:28:42;;;;;;;;;;;39.10;28.70;;;;;;5082934;28;19938;-93
2022/05/17 14:31:14;;;;;;;;;;;39.50;29.40;;;;;;5076686;28;19916;-93
2022/05/17 14:33:39;;;;;;;;;;;39.60;28.70;;;;;;5086223;28;20265;-93
2022/05/17 14:36:06;;;;;;;;;;;39.40;29.40;;;;;;5087578;28;19957;-92
2022/05/17 14:38:32;;;;;;;;;;;39.10;29.10;;;;;;5079351;28;19920;-92
2022/05/17 14:40:57;;;;;;;;;;;38.60;30.00;;;;;;5082197;28;19916;-93
2022/05/17 14:43:23;;;;;;;;;;;38.70;30.50;;;;;;5088765;28;19916;-93
2022/05/17 14:45:52;;;;;;;;;;;38.70;30.70;;;;;;5079291;28;19916;-93
2022/05/17 14:48:19;;;;;;;;;;;38.70;29.60;;;;;;5088519;28;19947;-92
2022/05/17 14:50:45;;;;;;;;;;;38.20;30.90;;;;;;5093682;28;20013;-93
2022/05/17 14:53:10;;;;;;;;;;;38.20;32.60;;;;;;5087671;28;19913;-92
2022/05/17 14:55:36;;;;;;;;;;;37.70;31.20;;;;;;5073451;28;19909;-92
2022/05/17 14:58:02;;;;;;;;;;;37.40;35.30;;;;;;5082096;28;19912;-92
2022/05/17 15:00:29;;;;;;;;;;;37.70;32.90;;;;;;5084692;28;19919;-93
2022/05/17 15:02:54;;;;;;;;;;;37.70;30.30;;;;;;5081890;28;19923;-92